sensor_id;sensor_type;location;lat;lon;timestamp;P1;durP1;ratioP1;P2;durP2;ratioP2
53646;SDS011;39550;52.230;5.194;2023-05-07T00:01:53;10.90;;;8.68;;
53646;SDS011;39550;52.230;5.194;2023-05-07T00:04:18;10.93;;;8.18;;
53646;SDS011;39550;52.230;5.194;2023-05-07T00:06:44;9.90;;;8.38;;
53646;SDS011;39550;52.230;5.194;2023-05-07T00:09:09;10.18;;;8.20;;
53646;SDS011;39550;52.230;5.194;2023-05-07T00:11:35;9.25;;;8.20;;
53646;SDS011;39550;52.230;5.194;2023-05-07T00:14:01;9.80;;;8.57;;
53646;SDS011;39550;52.230;5.194;2023-05-07T00:16:26;10.07;;;8.10;;
53646;SDS011;39550;52.230;5.194;2023-05-07T00:18:52;11.40;;;8.13;;
53646;SDS011;39550;52.230;5.194;2023-05-07T00:21:17;10.32;;;8.50;;
53646;SDS011;39550;52.230;5.194;2023-05-07T00:23:42;11.07;;;8.30;;
53646;SDS011;39550;52.230;5.194;2023-05-07T00:26:08;10.32;;;7.80;;
53646;SDS011;39550;52.230;5.194;2023-05-07T00:28:33;10.40;;;8.48;;
53646;SDS011;39550;52.230;5.194;2023-05-07T00:30:58;10.13;;;8.13;;
53646;SDS011;39550;52.230;5.194;2023-05-07T00:33:23;12.07;;;8.48;;
53646;SDS011;39550;52.230;5.194;2023-05-07T00:35:51;10.55;;;8.40;;
53646;SDS011;39550;52.230;5.194;2023-05-07T00:38:16;10.90;;;8.40;;
53646;SDS011;39550;52.230;5.194;2023-05-07T00:40:42;9.77;;;7.82;;
53646;SDS011;39550;52.230;5.194;2023-05-07T00:43:07;10.10;;;8.05;;
53646;SDS011;39550;52.230;5.194;2023-05-07T00:45:33;8.90;;;7.45;;
53646;SDS011;39550;52.230;5.194;2023-05-07T00:47:59;11.18;;;7.95;;
53646;SDS011;39550;52.230;5.194;2023-05-07T00:50:26;9.23;;;7.95;;
53646;SDS011;39550;52.230;5.194;2023-05-07T00:52:53;9.27;;;7.80;;
53646;SDS011;39550;52.230;5.194;2023-05-07T00:55:19;9.85;;;8.00;;
53646;SDS011;39550;52.230;5.194;2023-05-07T00:57:46;10.57;;;8.30;;
53646;SDS011;39550;52.230;5.194;2023-05-07T01:00:11;9.98;;;8.10;;
53646;SDS011;39550;52.230;5.194;2023-05-07T01:02:38;11.15;;;7.88;;
53646;SDS011;39550;52.230;5.194;2023-05-07T01:05:04;9.40;;;7.63;;
53646;SDS011;39550;52.230;5.194;2023-05-07T01:07:32;9.43;;;7.50;;
53646;SDS011;39550;52.230;5.194;2023-05-07T01:09:59;9.63;;;7.40;;
53646;SDS011;39550;52.230;5.194;2023-05-07T01:12:25;9.07;;;6.95;;
53646;SDS011;39550;52.230;5.194;2023-05-07T01:14:52;10.40;;;7.85;;
53646;SDS011;39550;52.230;5.194;2023-05-07T01:17:18;9.48;;;7.75;;
53646;SDS011;39550;52.230;5.194;2023-05-07T01:19:44;9.77;;;7.72;;
53646;SDS011;39550;52.230;5.194;2023-05-07T01:22:09;9.00;;;8.10;;
53646;SDS011;39550;52.230;5.194;2023-05-07T01:24:39;9.10;;;7.53;;
53646;SDS011;39550;52.230;5.194;2023-05-07T01:27:05;9.05;;;7.22;;
53646;SDS011;39550;52.230;5.194;2023-05-07T01:29:30;8.45;;;6.78;;
53646;SDS011;39550;52.230;5.194;2023-05-07T01:31:56;8.35;;;7.00;;
53646;SDS011;39550;52.230;5.194;2023-05-07T01:34:24;9.02;;;6.80;;
53646;SDS011;39550;52.230;5.194;2023-05-07T01:36:52;9.38;;;7.25;;
53646;SDS011;39550;52.230;5.194;2023-05-07T01:39:20;8.55;;;6.97;;
53646;SDS011;39550;52.230;5.194;2023-05-07T01:41:48;8.30;;;6.63;;
53646;SDS011;39550;52.230;5.194;2023-05-07T01:44:14;8.60;;;6.57;;
53646;SDS011;39550;52.230;5.194;2023-05-07T01:46:41;8.68;;;7.25;;
53646;SDS011;39550;52.230;5.194;2023-05-07T01:49:06;8.50;;;6.88;;
53646;SDS011;39550;52.230;5.194;2023-05-07T01:51:32;9.98;;;7.00;;
53646;SDS011;39550;52.230;5.194;2023-05-07T01:53:58;10.13;;;7.03;;
53646;SDS011;39550;52.230;5.194;2023-05-07T01:56:24;7.72;;;5.88;;
53646;SDS011;39550;52.230;5.194;2023-05-07T01:58:49;7.80;;;6.22;;
53646;SDS011;39550;52.230;5.194;2023-05-07T02:01:16;8.93;;;5.97;;
53646;SDS011;39550;52.230;5.194;2023-05-07T02:03:41;7.93;;;6.43;;
53646;SDS011;39550;52.230;5.194;2023-05-07T02:06:07;8.77;;;6.50;;
53646;SDS011;39550;52.230;5.194;2023-05-07T02:08:32;7.47;;;5.80;;
53646;SDS011;39550;52.230;5.194;2023-05-07T02:10:57;8.27;;;6.10;;
53646;SDS011;39550;52.230;5.194;2023-05-07T02:13:29;8.98;;;6.30;;
53646;SDS011;39550;52.230;5.194;2023-05-07T02:15:57;8.13;;;6.10;;
53646;SDS011;39550;52.230;5.194;2023-05-07T02:18:22;7.75;;;5.65;;
53646;SDS011;39550;52.230;5.194;2023-05-07T02:20:48;8.30;;;6.40;;
53646;SDS011;39550;52.230;5.194;2023-05-07T02:23:13;8.30;;;6.28;;
53646;SDS011;39550;52.230;5.194;2023-05-07T02:25:38;7.35;;;6.28;;
53646;SDS011;39550;52.230;5.194;2023-05-07T02:28:03;6.68;;;5.43;;
53646;SDS011;39550;52.230;5.194;2023-05-07T02:30:29;6.65;;;5.00;;
53646;SDS011;39550;52.230;5.194;2023-05-07T02:32:54;8.25;;;6.18;;
53646;SDS011;39550;52.230;5.194;2023-05-07T02:35:20;8.20;;;5.90;;
53646;SDS011;39550;52.230;5.194;2023-05-07T02:37:45;6.03;;;5.00;;
53646;SDS011;39550;52.230;5.194;2023-05-07T02:40:11;7.35;;;5.57;;
53646;SDS011;39550;52.230;5.194;2023-05-07T02:42:36;7.90;;;5.63;;
53646;SDS011;39550;52.230;5.194;2023-05-07T02:45:02;7.20;;;5.55;;
53646;SDS011;39550;52.230;5.194;2023-05-07T02:47:27;7.18;;;5.32;;
53646;SDS011;39550;52.230;5.194;2023-05-07T02:49:53;7.22;;;5.45;;
53646;SDS011;39550;52.230;5.194;2023-05-07T02:52:19;7.38;;;6.00;;
53646;SDS011;39550;52.230;5.194;2023-05-07T02:54:45;7.03;;;5.70;;
53646;SDS011;39550;52.230;5.194;2023-05-07T02:57:10;7.07;;;5.68;;
53646;SDS011;39550;52.230;5.194;2023-05-07T02:59:36;6.90;;;5.60;;
53646;SDS011;39550;52.230;5.194;2023-05-07T03:02:01;7.00;;;5.40;;
53646;SDS011;39550;52.230;5.194;2023-05-07T03:04:26;7.20;;;5.38;;
53646;SDS011;39550;52.230;5.194;2023-05-07T03:06:52;6.85;;;5.85;;
53646;SDS011;39550;52.230;5.194;2023-05-07T03:09:17;7.95;;;5.57;;
53646;SDS011;39550;52.230;5.194;2023-05-07T03:11:42;6.55;;;4.75;;
53646;SDS011;39550;52.230;5.194;2023-05-07T03:14:08;6.80;;;5.28;;
53646;SDS011;39550;52.230;5.194;2023-05-07T03:16:33;7.90;;;6.13;;
53646;SDS011;39550;52.230;5.194;2023-05-07T03:18:59;7.18;;;4.65;;
53646;SDS011;39550;52.230;5.194;2023-05-07T03:21:24;6.07;;;4.85;;
53646;SDS011;39550;52.230;5.194;2023-05-07T03:23:51;7.22;;;5.07;;
53646;SDS011;39550;52.230;5.194;2023-05-07T03:26:16;6.28;;;4.80;;
53646;SDS011;39550;52.230;5.194;2023-05-07T03:28:42;6.43;;;4.75;;
53646;SDS011;39550;52.230;5.194;2023-05-07T03:31:07;6.20;;;5.10;;
53646;SDS011;39550;52.230;5.194;2023-05-07T03:33:33;7.00;;;5.20;;
53646;SDS011;39550;52.230;5.194;2023-05-07T03:35:59;7.40;;;5.43;;
53646;SDS011;39550;52.230;5.194;2023-05-07T03:38:25;7.05;;;5.43;;
53646;SDS011;39550;52.230;5.194;2023-05-07T03:40:50;7.20;;;5.50;;
53646;SDS011;39550;52.230;5.194;2023-05-07T03:43:15;8.35;;;5.43;;
53646;SDS011;39550;52.230;5.194;2023-05-07T03:45:41;6.57;;;5.05;;
53646;SDS011;39550;52.230;5.194;2023-05-07T03:48:07;6.47;;;5.00;;
53646;SDS011;39550;52.230;5.194;2023-05-07T03:50:32;6.60;;;5.22;;
53646;SDS011;39550;52.230;5.194;2023-05-07T03:52:57;6.95;;;5.40;;
53646;SDS011;39550;52.230;5.194;2023-05-07T03:55:23;5.88;;;4.90;;
53646;SDS011;39550;52.230;5.194;2023-05-07T03:57:48;6.53;;;5.03;;
53646;SDS011;39550;52.230;5.194;2023-05-07T04:00:13;6.78;;;4.82;;
53646;SDS011;39550;52.230;5.194;2023-05-07T04:02:39;5.70;;;4.80;;
53646;SDS011;39550;52.230;5.194;2023-05-07T04:05:04;6.20;;;4.60;;
53646;SDS011;39550;52.230;5.194;2023-05-07T04:07:30;6.70;;;5.05;;
53646;SDS011;39550;52.230;5.194;2023-05-07T04:09:55;6.65;;;5.30;;
53646;SDS011;39550;52.230;5.194;2023-05-07T04:12:20;8.25;;;5.32;;
53646;SDS011;39550;52.230;5.194;2023-05-07T04:14:46;6.50;;;5.00;;
53646;SDS011;39550;52.230;5.194;2023-05-07T04:17:11;6.63;;;4.80;;
53646;SDS011;39550;52.230;5.194;2023-05-07T04:19:36;6.00;;;4.85;;
53646;SDS011;39550;52.230;5.194;2023-05-07T04:22:01;6.75;;;4.90;;
53646;SDS011;39550;52.230;5.194;2023-05-07T04:24:27;5.93;;;4.97;;
53646;SDS011;39550;52.230;5.194;2023-05-07T04:26:52;6.80;;;5.13;;
53646;SDS011;39550;52.230;5.194;2023-05-07T04:29:17;7.10;;;5.32;;
53646;SDS011;39550;52.230;5.194;2023-05-07T04:31:43;7.72;;;5.38;;
53646;SDS011;39550;52.230;5.194;2023-05-07T04:34:09;7.30;;;4.80;;
53646;SDS011;39550;52.230;5.194;2023-05-07T04:36:36;8.98;;;5.28;;
53646;SDS011;39550;52.230;5.194;2023-05-07T04:39:03;7.70;;;5.13;;
53646;SDS011;39550;52.230;5.194;2023-05-07T04:41:28;7.10;;;5.40;;
53646;SDS011;39550;52.230;5.194;2023-05-07T04:43:54;5.95;;;4.90;;
53646;SDS011;39550;52.230;5.194;2023-05-07T04:46:19;6.40;;;4.88;;
53646;SDS011;39550;52.230;5.194;2023-05-07T04:48:44;6.35;;;5.10;;
53646;SDS011;39550;52.230;5.194;2023-05-07T04:51:10;6.47;;;5.25;;
53646;SDS011;39550;52.230;5.194;2023-05-07T04:53:36;7.18;;;5.38;;
53646;SDS011;39550;52.230;5.194;2023-05-07T04:56:02;6.53;;;5.13;;
53646;SDS011;39550;52.230;5.194;2023-05-07T04:58:27;7.45;;;5.38;;
53646;SDS011;39550;52.230;5.194;2023-05-07T05:00:56;6.00;;;5.15;;
53646;SDS011;39550;52.230;5.194;2023-05-07T05:03:22;5.72;;;4.80;;
53646;SDS011;39550;52.230;5.194;2023-05-07T05:05:48;6.22;;;4.63;;
53646;SDS011;39550;52.230;5.194;2023-05-07T05:08:14;7.93;;;4.88;;
53646;SDS011;39550;52.230;5.194;2023-05-07T05:10:39;7.35;;;4.88;;
53646;SDS011;39550;52.230;5.194;2023-05-07T05:13:06;6.95;;;4.90;;
53646;SDS011;39550;52.230;5.194;2023-05-07T05:15:32;6.85;;;5.55;;
53646;SDS011;39550;52.230;5.194;2023-05-07T05:17:57;6.45;;;5.03;;
53646;SDS011;39550;52.230;5.194;2023-05-07T05:20:22;7.20;;;5.13;;
53646;SDS011;39550;52.230;5.194;2023-05-07T05:22:47;6.47;;;5.50;;
53646;SDS011;39550;52.230;5.194;2023-05-07T05:25:13;6.68;;;5.13;;
53646;SDS011;39550;52.230;5.194;2023-05-07T05:27:38;7.13;;;5.68;;
53646;SDS011;39550;52.230;5.194;2023-05-07T05:30:03;6.07;;;4.95;;
53646;SDS011;39550;52.230;5.194;2023-05-07T05:32:30;9.85;;;5.40;;
53646;SDS011;39550;52.230;5.194;2023-05-07T05:34:55;7.68;;;5.50;;
53646;SDS011;39550;52.230;5.194;2023-05-07T05:37:20;7.93;;;5.47;;
53646;SDS011;39550;52.230;5.194;2023-05-07T05:39:46;7.15;;;5.25;;
53646;SDS011;39550;52.230;5.194;2023-05-07T05:42:11;6.95;;;5.43;;
53646;SDS011;39550;52.230;5.194;2023-05-07T05:44:37;6.05;;;4.93;;
53646;SDS011;39550;52.230;5.194;2023-05-07T05:47:02;6.32;;;4.90;;
53646;SDS011;39550;52.230;5.194;2023-05-07T05:49:28;6.32;;;4.85;;
53646;SDS011;39550;52.230;5.194;2023-05-07T05:51:53;7.53;;;5.13;;
53646;SDS011;39550;52.230;5.194;2023-05-07T05:54:18;7.05;;;5.10;;
53646;SDS011;39550;52.230;5.194;2023-05-07T05:56:44;7.15;;;5.40;;
53646;SDS011;39550;52.230;5.194;2023-05-07T05:59:09;7.30;;;5.28;;
53646;SDS011;39550;52.230;5.194;2023-05-07T06:01:35;6.07;;;5.20;;
53646;SDS011;39550;52.230;5.194;2023-05-07T06:04:00;6.00;;;5.22;;
53646;SDS011;39550;52.230;5.194;2023-05-07T06:06:25;6.43;;;5.03;;
53646;SDS011;39550;52.230;5.194;2023-05-07T06:08:51;7.22;;;5.50;;
53646;SDS011;39550;52.230;5.194;2023-05-07T06:11:16;7.25;;;5.70;;
53646;SDS011;39550;52.230;5.194;2023-05-07T06:13:41;7.20;;;5.90;;
53646;SDS011;39550;52.230;5.194;2023-05-07T06:16:07;7.38;;;5.82;;
53646;SDS011;39550;52.230;5.194;2023-05-07T06:18:32;8.18;;;6.03;;
53646;SDS011;39550;52.230;5.194;2023-05-07T06:20:57;7.35;;;5.80;;
53646;SDS011;39550;52.230;5.194;2023-05-07T06:23:23;8.48;;;6.28;;
53646;SDS011;39550;52.230;5.194;2023-05-07T06:25:48;7.15;;;6.13;;
53646;SDS011;39550;52.230;5.194;2023-05-07T06:28:15;7.40;;;6.22;;
53646;SDS011;39550;52.230;5.194;2023-05-07T06:30:40;7.50;;;6.28;;
53646;SDS011;39550;52.230;5.194;2023-05-07T06:33:05;7.93;;;6.65;;
53646;SDS011;39550;52.230;5.194;2023-05-07T06:35:31;8.63;;;6.00;;
53646;SDS011;39550;52.230;5.194;2023-05-07T06:37:56;7.70;;;6.45;;
53646;SDS011;39550;52.230;5.194;2023-05-07T06:40:21;7.57;;;6.25;;
53646;SDS011;39550;52.230;5.194;2023-05-07T06:42:47;6.80;;;5.80;;
53646;SDS011;39550;52.230;5.194;2023-05-07T06:45:12;7.05;;;6.10;;
53646;SDS011;39550;52.230;5.194;2023-05-07T06:47:37;8.25;;;6.47;;
53646;SDS011;39550;52.230;5.194;2023-05-07T06:50:03;8.90;;;6.18;;
53646;SDS011;39550;52.230;5.194;2023-05-07T06:52:28;7.40;;;5.95;;
53646;SDS011;39550;52.230;5.194;2023-05-07T06:54:54;7.78;;;6.90;;
53646;SDS011;39550;52.230;5.194;2023-05-07T06:57:19;8.07;;;6.53;;
53646;SDS011;39550;52.230;5.194;2023-05-07T06:59:44;8.35;;;7.28;;
53646;SDS011;39550;52.230;5.194;2023-05-07T07:02:09;9.82;;;7.55;;
53646;SDS011;39550;52.230;5.194;2023-05-07T07:04:35;10.48;;;7.60;;
53646;SDS011;39550;52.230;5.194;2023-05-07T07:07:00;8.75;;;7.35;;
53646;SDS011;39550;52.230;5.194;2023-05-07T07:09:25;10.15;;;8.02;;
53646;SDS011;39550;52.230;5.194;2023-05-07T07:11:51;9.85;;;8.10;;
53646;SDS011;39550;52.230;5.194;2023-05-07T07:14:16;9.43;;;7.88;;
53646;SDS011;39550;52.230;5.194;2023-05-07T07:16:42;9.30;;;8.05;;
53646;SDS011;39550;52.230;5.194;2023-05-07T07:19:07;7.97;;;7.07;;
53646;SDS011;39550;52.230;5.194;2023-05-07T07:21:33;9.90;;;7.32;;
53646;SDS011;39550;52.230;5.194;2023-05-07T07:23:58;9.00;;;7.40;;
53646;SDS011;39550;52.230;5.194;2023-05-07T07:26:23;10.45;;;7.82;;
53646;SDS011;39550;52.230;5.194;2023-05-07T07:28:49;10.57;;;7.70;;
53646;SDS011;39550;52.230;5.194;2023-05-07T07:31:14;9.73;;;7.95;;
53646;SDS011;39550;52.230;5.194;2023-05-07T07:33:40;10.25;;;8.23;;
53646;SDS011;39550;52.230;5.194;2023-05-07T07:36:05;9.13;;;7.53;;
53646;SDS011;39550;52.230;5.194;2023-05-07T07:38:31;10.63;;;8.90;;
53646;SDS011;39550;52.230;5.194;2023-05-07T07:40:57;9.68;;;8.43;;
53646;SDS011;39550;52.230;5.194;2023-05-07T07:43:22;10.75;;;8.82;;
53646;SDS011;39550;52.230;5.194;2023-05-07T07:45:47;11.23;;;9.35;;
53646;SDS011;39550;52.230;5.194;2023-05-07T07:48:13;10.68;;;8.52;;
53646;SDS011;39550;52.230;5.194;2023-05-07T07:50:38;13.35;;;9.90;;
53646;SDS011;39550;52.230;5.194;2023-05-07T07:53:03;10.38;;;8.70;;
53646;SDS011;39550;52.230;5.194;2023-05-07T07:55:29;11.55;;;9.10;;
53646;SDS011;39550;52.230;5.194;2023-05-07T07:57:54;9.95;;;8.90;;
53646;SDS011;39550;52.230;5.194;2023-05-07T08:00:19;11.63;;;9.68;;
53646;SDS011;39550;52.230;5.194;2023-05-07T08:02:45;12.52;;;9.60;;
53646;SDS011;39550;52.230;5.194;2023-05-07T08:05:10;11.38;;;9.68;;
53646;SDS011;39550;52.230;5.194;2023-05-07T08:07:35;10.98;;;9.27;;
53646;SDS011;39550;52.230;5.194;2023-05-07T08:10:01;10.98;;;9.73;;
53646;SDS011;39550;52.230;5.194;2023-05-07T08:12:27;10.73;;;9.60;;
53646;SDS011;39550;52.230;5.194;2023-05-07T08:14:52;11.63;;;10.43;;
53646;SDS011;39550;52.230;5.194;2023-05-07T08:17:18;11.60;;;9.60;;
53646;SDS011;39550;52.230;5.194;2023-05-07T08:19:43;12.32;;;9.95;;
53646;SDS011;39550;52.230;5.194;2023-05-07T08:22:09;11.70;;;9.98;;
53646;SDS011;39550;52.230;5.194;2023-05-07T08:24:35;12.48;;;10.40;;
53646;SDS011;39550;52.230;5.194;2023-05-07T08:27:00;13.90;;;11.32;;
53646;SDS011;39550;52.230;5.194;2023-05-07T08:29:26;12.63;;;10.38;;
53646;SDS011;39550;52.230;5.194;2023-05-07T08:31:51;12.38;;;10.32;;
53646;SDS011;39550;52.230;5.194;2023-05-07T08:34:16;14.65;;;11.23;;
53646;SDS011;39550;52.230;5.194;2023-05-07T08:36:42;15.32;;;11.98;;
53646;SDS011;39550;52.230;5.194;2023-05-07T08:39:07;11.40;;;10.07;;
53646;SDS011;39550;52.230;5.194;2023-05-07T08:41:32;13.18;;;10.85;;
53646;SDS011;39550;52.230;5.194;2023-05-07T08:43:58;13.80;;;10.90;;
53646;SDS011;39550;52.230;5.194;2023-05-07T08:48:55;13.00;;;10.90;;
53646;SDS011;39550;52.230;5.194;2023-05-07T08:51:21;13.27;;;10.43;;
53646;SDS011;39550;52.230;5.194;2023-05-07T08:53:47;12.68;;;10.88;;
53646;SDS011;39550;52.230;5.194;2023-05-07T08:56:13;12.23;;;10.93;;
53646;SDS011;39550;52.230;5.194;2023-05-07T08:58:40;12.15;;;10.05;;
53646;SDS011;39550;52.230;5.194;2023-05-07T09:01:10;12.48;;;9.88;;
53646;SDS011;39550;52.230;5.194;2023-05-07T09:03:38;12.23;;;10.07;;
53646;SDS011;39550;52.230;5.194;2023-05-07T09:06:04;12.98;;;10.40;;
53646;SDS011;39550;52.230;5.194;2023-05-07T09:08:29;10.82;;;9.73;;
53646;SDS011;39550;52.230;5.194;2023-05-07T09:10:55;10.85;;;9.15;;
53646;SDS011;39550;52.230;5.194;2023-05-07T09:13:20;11.82;;;9.88;;
53646;SDS011;39550;52.230;5.194;2023-05-07T09:15:46;13.32;;;9.57;;
53646;SDS011;39550;52.230;5.194;2023-05-07T09:18:12;11.13;;;8.40;;
53646;SDS011;39550;52.230;5.194;2023-05-07T09:20:37;12.88;;;9.90;;
53646;SDS011;39550;52.230;5.194;2023-05-07T09:23:03;12.90;;;10.65;;
53646;SDS011;39550;52.230;5.194;2023-05-07T09:25:32;13.23;;;9.85;;
53646;SDS011;39550;52.230;5.194;2023-05-07T09:28:00;12.40;;;9.90;;
53646;SDS011;39550;52.230;5.194;2023-05-07T09:30:29;11.50;;;9.90;;
53646;SDS011;39550;52.230;5.194;2023-05-07T09:35:22;11.35;;;9.80;;
53646;SDS011;39550;52.230;5.194;2023-05-07T09:37:49;12.60;;;11.02;;
53646;SDS011;39550;52.230;5.194;2023-05-07T09:40:28;15.02;;;12.07;;
53646;SDS011;39550;52.230;5.194;2023-05-07T09:42:55;12.95;;;11.55;;
53646;SDS011;39550;52.230;5.194;2023-05-07T09:45:27;14.23;;;12.35;;
53646;SDS011;39550;52.230;5.194;2023-05-07T09:47:54;13.80;;;11.63;;
53646;SDS011;39550;52.230;5.194;2023-05-07T09:50:22;13.05;;;11.10;;
53646;SDS011;39550;52.230;5.194;2023-05-07T09:52:52;13.43;;;10.73;;
53646;SDS011;39550;52.230;5.194;2023-05-07T09:55:20;13.40;;;10.77;;
53646;SDS011;39550;52.230;5.194;2023-05-07T09:57:47;13.40;;;10.43;;
53646;SDS011;39550;52.230;5.194;2023-05-07T10:00:15;11.98;;;10.15;;
53646;SDS011;39550;52.230;5.194;2023-05-07T10:02:44;13.27;;;11.07;;
53646;SDS011;39550;52.230;5.194;2023-05-07T10:05:14;11.88;;;9.70;;
53646;SDS011;39550;52.230;5.194;2023-05-07T10:07:40;11.60;;;9.65;;
53646;SDS011;39550;52.230;5.194;2023-05-07T10:10:06;12.85;;;10.13;;
53646;SDS011;39550;52.230;5.194;2023-05-07T10:12:32;11.82;;;9.60;;
53646;SDS011;39550;52.230;5.194;2023-05-07T10:15:10;11.52;;;9.52;;
53646;SDS011;39550;52.230;5.194;2023-05-07T10:17:40;12.85;;;10.38;;
53646;SDS011;39550;52.230;5.194;2023-05-07T10:20:07;12.45;;;9.60;;
53646;SDS011;39550;52.230;5.194;2023-05-07T10:22:37;11.75;;;10.20;;
53646;SDS011;39550;52.230;5.194;2023-05-07T10:25:12;11.13;;;9.85;;
53646;SDS011;39550;52.230;5.194;2023-05-07T10:27:41;12.38;;;9.95;;
53646;SDS011;39550;52.230;5.194;2023-05-07T10:32:53;12.13;;;9.73;;
53646;SDS011;39550;52.230;5.194;2023-05-07T10:35:24;11.88;;;10.40;;
53646;SDS011;39550;52.230;5.194;2023-05-07T10:37:54;11.65;;;9.95;;
53646;SDS011;39550;52.230;5.194;2023-05-07T10:40:20;12.15;;;9.05;;
53646;SDS011;39550;52.230;5.194;2023-05-07T10:42:59;11.60;;;9.68;;
53646;SDS011;39550;52.230;5.194;2023-05-07T10:45:26;12.82;;;9.77;;
53646;SDS011;39550;52.230;5.194;2023-05-07T10:50:41;11.88;;;9.48;;
53646;SDS011;39550;52.230;5.194;2023-05-07T10:55:50;13.32;;;9.40;;
53646;SDS011;39550;52.230;5.194;2023-05-07T10:58:27;11.90;;;9.30;;
53646;SDS011;39550;52.230;5.194;2023-05-07T11:00:57;11.77;;;9.18;;
53646;SDS011;39550;52.230;5.194;2023-05-07T11:03:24;11.25;;;9.27;;
53646;SDS011;39550;52.230;5.194;2023-05-07T11:06:09;11.68;;;9.23;;
53646;SDS011;39550;52.230;5.194;2023-05-07T11:14:09;10.38;;;7.90;;
53646;SDS011;39550;52.230;5.194;2023-05-07T11:16:35;10.55;;;8.35;;
53646;SDS011;39550;52.230;5.194;2023-05-07T11:19:02;9.48;;;7.95;;
53646;SDS011;39550;52.230;5.194;2023-05-07T11:24:05;9.25;;;7.55;;
53646;SDS011;39550;52.230;5.194;2023-05-07T11:26:42;8.65;;;7.28;;
53646;SDS011;39550;52.230;5.194;2023-05-07T11:29:18;8.27;;;6.20;;
53646;SDS011;39550;52.230;5.194;2023-05-07T11:31:52;10.45;;;6.60;;
53646;SDS011;39550;52.230;5.194;2023-05-07T11:34:24;10.13;;;6.32;;
53646;SDS011;39550;52.230;5.194;2023-05-07T11:36:52;7.53;;;6.15;;
53646;SDS011;39550;52.230;5.194;2023-05-07T11:39:27;8.50;;;6.00;;
53646;SDS011;39550;52.230;5.194;2023-05-07T11:41:55;8.90;;;5.93;;
53646;SDS011;39550;52.230;5.194;2023-05-07T11:44:20;8.18;;;5.30;;
53646;SDS011;39550;52.230;5.194;2023-05-07T11:46:46;6.82;;;5.15;;
53646;SDS011;39550;52.230;5.194;2023-05-07T11:49:11;6.60;;;5.07;;
53646;SDS011;39550;52.230;5.194;2023-05-07T11:51:36;6.30;;;4.93;;
53646;SDS011;39550;52.230;5.194;2023-05-07T11:54:05;9.15;;;5.40;;
53646;SDS011;39550;52.230;5.194;2023-05-07T11:56:34;6.47;;;4.55;;
53646;SDS011;39550;52.230;5.194;2023-05-07T11:59:04;8.07;;;5.22;;
53646;SDS011;39550;52.230;5.194;2023-05-07T12:01:29;5.80;;;4.38;;
53646;SDS011;39550;52.230;5.194;2023-05-07T12:03:55;8.82;;;4.65;;
53646;SDS011;39550;52.230;5.194;2023-05-07T12:06:20;6.30;;;4.57;;
53646;SDS011;39550;52.230;5.194;2023-05-07T12:08:45;8.25;;;4.57;;
53646;SDS011;39550;52.230;5.194;2023-05-07T12:11:24;6.40;;;4.50;;
53646;SDS011;39550;52.230;5.194;2023-05-07T12:13:50;7.47;;;4.43;;
53646;SDS011;39550;52.230;5.194;2023-05-07T12:16:16;7.57;;;4.47;;
53646;SDS011;39550;52.230;5.194;2023-05-07T12:18:43;5.80;;;3.95;;
53646;SDS011;39550;52.230;5.194;2023-05-07T12:21:09;5.97;;;4.25;;
53646;SDS011;39550;52.230;5.194;2023-05-07T12:23:36;8.05;;;4.65;;
53646;SDS011;39550;52.230;5.194;2023-05-07T12:26:02;7.53;;;4.68;;
53646;SDS011;39550;52.230;5.194;2023-05-07T12:28:28;8.02;;;4.53;;
53646;SDS011;39550;52.230;5.194;2023-05-07T12:30:53;5.85;;;4.35;;
53646;SDS011;39550;52.230;5.194;2023-05-07T12:33:23;6.05;;;4.43;;
53646;SDS011;39550;52.230;5.194;2023-05-07T12:35:49;7.20;;;4.53;;
53646;SDS011;39550;52.230;5.194;2023-05-07T12:38:16;6.05;;;4.30;;
53646;SDS011;39550;52.230;5.194;2023-05-07T12:40:43;7.43;;;5.32;;
53646;SDS011;39550;52.230;5.194;2023-05-07T12:43:20;6.20;;;4.15;;
53646;SDS011;39550;52.230;5.194;2023-05-07T12:45:47;8.30;;;5.35;;
53646;SDS011;39550;52.230;5.194;2023-05-07T12:48:14;6.80;;;4.97;;
53646;SDS011;39550;52.230;5.194;2023-05-07T12:50:40;7.72;;;5.47;;
53646;SDS011;39550;52.230;5.194;2023-05-07T12:53:05;9.80;;;6.05;;
53646;SDS011;39550;52.230;5.194;2023-05-07T12:55:34;9.15;;;6.63;;
53646;SDS011;39550;52.230;5.194;2023-05-07T12:58:05;9.32;;;6.78;;
53646;SDS011;39550;52.230;5.194;2023-05-07T13:00:35;10.52;;;7.53;;
53646;SDS011;39550;52.230;5.194;2023-05-07T13:03:01;11.20;;;7.00;;
53646;SDS011;39550;52.230;5.194;2023-05-07T13:05:26;10.43;;;6.63;;
53646;SDS011;39550;52.230;5.194;2023-05-07T13:07:52;9.43;;;6.63;;
53646;SDS011;39550;52.230;5.194;2023-05-07T13:10:19;9.20;;;6.13;;
53646;SDS011;39550;52.230;5.194;2023-05-07T13:12:44;9.77;;;6.97;;
53646;SDS011;39550;52.230;5.194;2023-05-07T13:15:09;9.57;;;6.70;;
53646;SDS011;39550;52.230;5.194;2023-05-07T13:17:35;9.20;;;6.43;;
53646;SDS011;39550;52.230;5.194;2023-05-07T13:20:00;10.73;;;6.40;;
53646;SDS011;39550;52.230;5.194;2023-05-07T13:22:26;8.68;;;6.32;;
53646;SDS011;39550;52.230;5.194;2023-05-07T13:24:51;8.70;;;6.00;;
53646;SDS011;39550;52.230;5.194;2023-05-07T13:27:16;9.68;;;6.90;;
53646;SDS011;39550;52.230;5.194;2023-05-07T13:29:41;8.77;;;6.35;;
53646;SDS011;39550;52.230;5.194;2023-05-07T13:32:07;10.95;;;6.72;;
53646;SDS011;39550;52.230;5.194;2023-05-07T13:34:32;8.43;;;6.40;;
53646;SDS011;39550;52.230;5.194;2023-05-07T13:36:57;8.68;;;6.50;;
53646;SDS011;39550;52.230;5.194;2023-05-07T13:39:23;10.35;;;7.00;;
53646;SDS011;39550;52.230;5.194;2023-05-07T13:41:48;10.93;;;6.00;;
53646;SDS011;39550;52.230;5.194;2023-05-07T13:44:13;10.85;;;6.72;;
53646;SDS011;39550;52.230;5.194;2023-05-07T13:46:40;10.30;;;6.65;;
53646;SDS011;39550;52.230;5.194;2023-05-07T13:49:05;8.40;;;6.03;;
53646;SDS011;39550;52.230;5.194;2023-05-07T13:51:30;7.93;;;5.85;;
53646;SDS011;39550;52.230;5.194;2023-05-07T13:53:56;7.68;;;6.13;;
53646;SDS011;39550;52.230;5.194;2023-05-07T13:56:23;10.82;;;6.50;;
53646;SDS011;39550;52.230;5.194;2023-05-07T13:58:48;8.40;;;5.97;;
53646;SDS011;39550;52.230;5.194;2023-05-07T14:01:14;9.82;;;6.78;;
53646;SDS011;39550;52.230;5.194;2023-05-07T14:03:39;12.05;;;7.10;;
53646;SDS011;39550;52.230;5.194;2023-05-07T14:06:05;13.55;;;7.05;;
53646;SDS011;39550;52.230;5.194;2023-05-07T14:08:30;9.45;;;6.38;;
53646;SDS011;39550;52.230;5.194;2023-05-07T14:10:56;8.43;;;6.13;;
53646;SDS011;39550;52.230;5.194;2023-05-07T14:13:21;11.00;;;6.82;;
53646;SDS011;39550;52.230;5.194;2023-05-07T14:15:47;7.70;;;5.68;;
53646;SDS011;39550;52.230;5.194;2023-05-07T14:18:13;9.73;;;7.13;;
53646;SDS011;39550;52.230;5.194;2023-05-07T14:20:39;9.35;;;6.15;;
53646;SDS011;39550;52.230;5.194;2023-05-07T14:23:04;8.95;;;6.72;;
53646;SDS011;39550;52.230;5.194;2023-05-07T14:25:30;11.57;;;7.60;;
53646;SDS011;39550;52.230;5.194;2023-05-07T14:27:55;11.13;;;7.90;;
53646;SDS011;39550;52.230;5.194;2023-05-07T14:30:20;8.65;;;6.00;;
53646;SDS011;39550;52.230;5.194;2023-05-07T14:32:49;9.82;;;6.50;;
53646;SDS011;39550;52.230;5.194;2023-05-07T14:35:14;13.43;;;7.85;;
53646;SDS011;39550;52.230;5.194;2023-05-07T14:37:40;12.07;;;7.15;;
53646;SDS011;39550;52.230;5.194;2023-05-07T14:40:05;12.80;;;6.80;;
53646;SDS011;39550;52.230;5.194;2023-05-07T14:42:31;11.32;;;6.95;;
53646;SDS011;39550;52.230;5.194;2023-05-07T14:44:56;9.55;;;6.75;;
53646;SDS011;39550;52.230;5.194;2023-05-07T14:47:22;13.63;;;7.25;;
53646;SDS011;39550;52.230;5.194;2023-05-07T14:49:47;9.40;;;6.15;;
53646;SDS011;39550;52.230;5.194;2023-05-07T14:52:12;9.07;;;6.93;;
53646;SDS011;39550;52.230;5.194;2023-05-07T14:54:38;9.02;;;6.07;;
53646;SDS011;39550;52.230;5.194;2023-05-07T14:57:04;8.75;;;6.50;;